sensor_id;sensor_type;location;lat;lon;timestamp;pressure;altitude;pressure_sealevel;temperature;humidity
48874;BME280;35220;46.204;5.220;2022-12-07T00:00:30;98908.44;;;2.81;82.76
48874;BME280;35220;46.204;5.220;2022-12-07T00:05:30;98885.06;;;2.82;82.63
48874;BME280;35220;46.204;5.220;2022-12-07T00:10:33;98882.31;;;2.84;82.80
48874;BME280;35220;46.204;5.220;2022-12-07T00:15:34;98891.25;;;2.88;82.36
48874;BME280;35220;46.204;5.220;2022-12-07T00:20:35;98895.03;;;2.92;82.76
48874;BME280;35220;46.204;5.220;2022-12-07T00:25:36;98890.44;;;2.88;83.27
48874;BME280;35220;46.204;5.220;2022-12-07T00:30:36;98888.69;;;2.95;82.66
48874;BME280;35220;46.204;5.220;2022-12-07T00:35:37;98871.50;;;2.95;82.39
48874;BME280;35220;46.204;5.220;2022-12-07T00:40:37;98877.63;;;3.01;82.56
48874;BME280;35220;46.204;5.220;2022-12-07T00:45:38;98884.38;;;3.02;82.31
48874;BME280;35220;46.204;5.220;2022-12-07T00:50:38;98878.44;;;3.01;82.25
48874;BME280;35220;46.204;5.220;2022-12-07T00:55:39;98874.66;;;2.97;82.98
48874;BME280;35220;46.204;5.220;2022-12-07T01:00:41;98877.41;;;2.96;82.94
48874;BME280;35220;46.204;5.220;2022-12-07T01:05:53;98877.59;;;2.94;83.62
48874;BME280;35220;46.204;5.220;2022-12-07T01:11:02;98868.50;;;2.92;83.57
48874;BME280;35220;46.204;5.220;2022-12-07T01:16:05;98870.84;;;2.87;83.82
48874;BME280;35220;46.204;5.220;2022-12-07T01:21:12;98876.63;;;2.95;83.22
48874;BME280;35220;46.204;5.220;2022-12-07T01:26:18;98868.88;;;2.89;83.68
48874;BME280;35220;46.204;5.220;2022-12-07T01:31:21;98868.84;;;2.82;84.26
48874;BME280;35220;46.204;5.220;2022-12-07T01:36:24;98880.31;;;2.79;84.64
48874;BME280;35220;46.204;5.220;2022-12-07T01:41:28;98879.91;;;2.76;84.69
48874;BME280;35220;46.204;5.220;2022-12-07T01:46:30;98872.41;;;2.81;84.34
48874;BME280;35220;46.204;5.220;2022-12-07T01:56:32;98879.78;;;2.91;84.22
48874;BME280;35220;46.204;5.220;2022-12-07T02:01:32;98890.50;;;3.01;83.53
48874;BME280;35220;46.204;5.220;2022-12-07T02:06:35;98884.38;;;3.02;83.90
48874;BME280;35220;46.204;5.220;2022-12-07T02:11:36;98896.44;;;3.01;83.81
48874;BME280;35220;46.204;5.220;2022-12-07T02:16:44;98889.88;;;2.92;84.42
48874;BME280;35220;46.204;5.220;2022-12-07T02:21:55;98881.75;;;2.89;84.73
48874;BME280;35220;46.204;5.220;2022-12-07T02:27:13;98881.94;;;2.87;84.40
48874;BME280;35220;46.204;5.220;2022-12-07T02:32:51;98873.22;;;2.81;84.90
48874;BME280;35220;46.204;5.220;2022-12-07T02:38:07;98861.13;;;2.82;85.37
48874;BME280;35220;46.204;5.220;2022-12-07T02:43:17;98857.00;;;2.88;85.12
48874;BME280;35220;46.204;5.220;2022-12-07T02:48:20;98862.13;;;2.81;84.97
48874;BME280;35220;46.204;5.220;2022-12-07T02:59:12;98853.59;;;2.80;85.65
48874;BME280;35220;46.204;5.220;2022-12-07T03:09:36;98849.44;;;2.79;85.26
48874;BME280;35220;46.204;5.220;2022-12-07T03:14:42;98845.50;;;2.83;85.40
48874;BME280;35220;46.204;5.220;2022-12-07T03:19:46;98848.06;;;2.83;85.24
48874;BME280;35220;46.204;5.220;2022-12-07T03:24:53;98837.63;;;2.92;84.56
48874;BME280;35220;46.204;5.220;2022-12-07T03:29:59;98851.88;;;2.94;85.03
48874;BME280;35220;46.204;5.220;2022-12-07T03:40:25;98854.41;;;2.88;84.97
48874;BME280;35220;46.204;5.220;2022-12-07T03:45:44;98846.91;;;2.86;84.87
48874;BME280;35220;46.204;5.220;2022-12-07T03:56:09;98835.81;;;2.85;84.68
48874;BME280;35220;46.204;5.220;2022-12-07T04:01:11;98838.97;;;2.88;84.75
48874;BME280;35220;46.204;5.220;2022-12-07T04:06:12;98837.59;;;2.85;84.90
48874;BME280;35220;46.204;5.220;2022-12-07T04:11:12;98829.91;;;2.92;84.93
48874;BME280;35220;46.204;5.220;2022-12-07T04:16:12;98837.03;;;2.90;84.89
48874;BME280;35220;46.204;5.220;2022-12-07T04:21:13;98829.09;;;2.84;85.11
48874;BME280;35220;46.204;5.220;2022-12-07T04:26:13;98834.19;;;2.78;85.00
48874;BME280;35220;46.204;5.220;2022-12-07T04:31:14;98828.88;;;2.79;85.10
48874;BME280;35220;46.204;5.220;2022-12-07T04:36:14;98821.75;;;2.81;84.63
48874;BME280;35220;46.204;5.220;2022-12-07T04:41:15;98814.41;;;2.78;84.91
48874;BME280;35220;46.204;5.220;2022-12-07T04:46:15;98832.22;;;2.80;85.01
48874;BME280;35220;46.204;5.220;2022-12-07T04:51:20;98827.69;;;2.82;84.82
48874;BME280;35220;46.204;5.220;2022-12-07T04:56:24;98819.16;;;2.81;84.80
48874;BME280;35220;46.204;5.220;2022-12-07T05:01:36;98818.56;;;2.79;84.82
48874;BME280;35220;46.204;5.220;2022-12-07T05:06:44;98812.47;;;2.87;84.49
48874;BME280;35220;46.204;5.220;2022-12-07T05:11:45;98808.72;;;2.90;84.63
48874;BME280;35220;46.204;5.220;2022-12-07T05:16:48;98808.50;;;2.91;84.32
48874;BME280;35220;46.204;5.220;2022-12-07T05:21:48;98805.13;;;2.91;84.26
48874;BME280;35220;46.204;5.220;2022-12-07T05:26:49;98799.81;;;2.92;84.19
48874;BME280;35220;46.204;5.220;2022-12-07T05:31:49;98792.06;;;2.85;84.24
48874;BME280;35220;46.204;5.220;2022-12-07T05:36:50;98802.72;;;2.82;84.47
48874;BME280;35220;46.204;5.220;2022-12-07T05:41:50;98792.81;;;2.73;85.13
48874;BME280;35220;46.204;5.220;2022-12-07T05:47:10;98793.38;;;2.68;85.04
48874;BME280;35220;46.204;5.220;2022-12-07T05:52:11;98792.03;;;2.72;85.06
48874;BME280;35220;46.204;5.220;2022-12-07T05:57:11;98781.13;;;2.70;85.11
48874;BME280;35220;46.204;5.220;2022-12-07T06:02:14;98782.53;;;2.73;84.96
48874;BME280;35220;46.204;5.220;2022-12-07T06:07:15;98786.28;;;2.70;84.99
48874;BME280;35220;46.204;5.220;2022-12-07T06:12:16;98790.81;;;2.68;85.31
48874;BME280;35220;46.204;5.220;2022-12-07T06:17:36;98789.69;;;2.77;85.03
48874;BME280;35220;46.204;5.220;2022-12-07T06:22:37;98778.38;;;2.78;84.82
48874;BME280;35220;46.204;5.220;2022-12-07T06:27:40;98784.91;;;2.74;85.04
48874;BME280;35220;46.204;5.220;2022-12-07T06:32:41;98785.88;;;2.73;85.28
48874;BME280;35220;46.204;5.220;2022-12-07T06:37:41;98774.25;;;2.77;84.83
48874;BME280;35220;46.204;5.220;2022-12-07T06:42:42;98787.69;;;2.79;85.13
48874;BME280;35220;46.204;5.220;2022-12-07T06:47:42;98776.81;;;2.84;85.02
48874;BME280;35220;46.204;5.220;2022-12-07T06:52:42;98777.81;;;2.83;84.98
48874;BME280;35220;46.204;5.220;2022-12-07T06:57:43;98788.28;;;2.81;84.81
48874;BME280;35220;46.204;5.220;2022-12-07T07:02:43;98789.28;;;2.87;84.86
48874;BME280;35220;46.204;5.220;2022-12-07T07:07:44;98794.84;;;2.91;84.94
48874;BME280;35220;46.204;5.220;2022-12-07T07:12:44;98792.88;;;2.93;84.87
48874;BME280;35220;46.204;5.220;2022-12-07T07:17:45;98793.47;;;2.88;85.03
48874;BME280;35220;46.204;5.220;2022-12-07T07:22:45;98799.97;;;2.84;85.43
48874;BME280;35220;46.204;5.220;2022-12-07T07:27:46;98799.56;;;2.80;85.37
48874;BME280;35220;46.204;5.220;2022-12-07T07:32:46;98795.63;;;2.84;85.02
48874;BME280;35220;46.204;5.220;2022-12-07T07:37:47;98789.88;;;2.82;84.42
48874;BME280;35220;46.204;5.220;2022-12-07T07:42:49;98788.72;;;2.92;84.56
48874;BME280;35220;46.204;5.220;2022-12-07T07:47:50;98800.63;;;2.99;83.92
48874;BME280;35220;46.204;5.220;2022-12-07T07:52:51;98815.28;;;2.99;84.17
48874;BME280;35220;46.204;5.220;2022-12-07T07:57:51;98815.09;;;3.07;84.27
48874;BME280;35220;46.204;5.220;2022-12-07T08:02:52;98813.88;;;3.03;84.39
48874;BME280;35220;46.204;5.220;2022-12-07T08:07:52;98813.28;;;2.94;84.45
48874;BME280;35220;46.204;5.220;2022-12-07T08:12:53;98814.28;;;3.00;84.20
48874;BME280;35220;46.204;5.220;2022-12-07T08:18:13;98823.19;;;2.97;84.12
48874;BME280;35220;46.204;5.220;2022-12-07T08:23:14;98821.81;;;3.01;84.25
48874;BME280;35220;46.204;5.220;2022-12-07T08:28:15;98822.81;;;3.07;84.22
48874;BME280;35220;46.204;5.220;2022-12-07T08:33:15;98826.59;;;3.11;83.67
48874;BME280;35220;46.204;5.220;2022-12-07T08:38:16;98831.56;;;3.13;83.73
48874;BME280;35220;46.204;5.220;2022-12-07T08:43:16;98830.38;;;3.22;83.49
48874;BME280;35220;46.204;5.220;2022-12-07T08:48:17;98830.59;;;3.27;83.40
48874;BME280;35220;46.204;5.220;2022-12-07T08:53:22;98836.75;;;3.33;83.21
48874;BME280;35220;46.204;5.220;2022-12-07T08:58:23;98835.72;;;3.34;83.25
48874;BME280;35220;46.204;5.220;2022-12-07T09:03:23;98837.16;;;3.36;83.15
48874;BME280;35220;46.204;5.220;2022-12-07T09:08:39;98846.06;;;3.40;82.60
48874;BME280;35220;46.204;5.220;2022-12-07T09:13:40;98847.06;;;3.39;83.12
48874;BME280;35220;46.204;5.220;2022-12-07T09:18:41;98842.09;;;3.38;82.79
48874;BME280;35220;46.204;5.220;2022-12-07T09:23:42;98846.66;;;3.42;82.61
48874;BME280;35220;46.204;5.220;2022-12-07T09:28:43;98843.69;;;3.46;82.63
48874;BME280;35220;46.204;5.220;2022-12-07T09:33:43;98853.63;;;3.55;82.51
48874;BME280;35220;46.204;5.220;2022-12-07T09:38:44;98843.50;;;3.67;81.72
48874;BME280;35220;46.204;5.220;2022-12-07T09:43:44;98863.94;;;3.69;81.04
48874;BME280;35220;46.204;5.220;2022-12-07T09:48:47;98849.25;;;3.69;81.21
48874;BME280;35220;46.204;5.220;2022-12-07T09:53:50;98843.72;;;3.72;80.72
48874;BME280;35220;46.204;5.220;2022-12-07T09:58:59;98852.22;;;3.73;81.47
48874;BME280;35220;46.204;5.220;2022-12-07T10:04:11;98841.34;;;3.77;81.22
48874;BME280;35220;46.204;5.220;2022-12-07T10:09:15;98838.38;;;3.80;81.63
48874;BME280;35220;46.204;5.220;2022-12-07T10:14:16;98830.84;;;3.86;81.28
48874;BME280;35220;46.204;5.220;2022-12-07T10:19:31;98831.44;;;3.88;80.56
48874;BME280;35220;46.204;5.220;2022-12-07T10:24:33;98826.88;;;3.90;80.62
48874;BME280;35220;46.204;5.220;2022-12-07T10:29:38;98821.53;;;3.91;80.34
48874;BME280;35220;46.204;5.220;2022-12-07T10:34:39;98808.25;;;3.94;80.28
48874;BME280;35220;46.204;5.220;2022-12-07T10:44:50;98789.19;;;3.95;80.01
48874;BME280;35220;46.204;5.220;2022-12-07T11:06:41;98770.34;;;4.02;79.60
48874;BME280;35220;46.204;5.220;2022-12-07T11:11:56;98767.16;;;3.99;79.93
48874;BME280;35220;46.204;5.220;2022-12-07T11:17:10;98762.78;;;4.07;79.92
48874;BME280;35220;46.204;5.220;2022-12-07T11:27:39;98759.63;;;4.05;79.87
48874;BME280;35220;46.204;5.220;2022-12-07T11:37:54;98738.41;;;4.03;80.02
48874;BME280;35220;46.204;5.220;2022-12-07T11:43:21;98737.63;;;4.02;79.44
48874;BME280;35220;46.204;5.220;2022-12-07T11:48:30;98724.69;;;4.15;79.50
48874;BME280;35220;46.204;5.220;2022-12-07T11:58:38;98719.50;;;4.29;78.98
48874;BME280;35220;46.204;5.220;2022-12-07T12:03:45;98712.53;;;4.29;79.13
48874;BME280;35220;46.204;5.220;2022-12-07T12:08:46;98716.91;;;4.29;78.96
48874;BME280;35220;46.204;5.220;2022-12-07T12:19:19;98717.69;;;4.29;78.79
48874;BME280;35220;46.204;5.220;2022-12-07T12:24:26;98704.22;;;4.27;78.67
48874;BME280;35220;46.204;5.220;2022-12-07T12:29:36;98703.56;;;4.38;78.03
48874;BME280;35220;46.204;5.220;2022-12-07T12:35:01;98708.34;;;4.35;78.03
48874;BME280;35220;46.204;5.220;2022-12-07T12:45:21;98681.34;;;4.44;77.68
48874;BME280;35220;46.204;5.220;2022-12-07T12:50:38;98679.53;;;4.45;77.53
48874;BME280;35220;46.204;5.220;2022-12-07T13:00:42;98686.34;;;4.32;77.77
48874;BME280;35220;46.204;5.220;2022-12-07T13:05:42;98678.59;;;4.32;78.17
48874;BME280;35220;46.204;5.220;2022-12-07T13:10:45;98679.16;;;4.41;77.80
48874;BME280;35220;46.204;5.220;2022-12-07T13:15:51;98674.38;;;4.45;77.84
48874;BME280;35220;46.204;5.220;2022-12-07T13:36:22;98663.78;;;4.53;77.67
48874;BME280;35220;46.204;5.220;2022-12-07T13:41:28;98659.06;;;4.50;77.48
48874;BME280;35220;46.204;5.220;2022-12-07T13:46:48;98656.69;;;4.48;77.82
48874;BME280;35220;46.204;5.220;2022-12-07T13:51:52;98654.72;;;4.44;78.22
48874;BME280;35220;46.204;5.220;2022-12-07T13:56:53;98651.19;;;4.38;78.44
48874;BME280;35220;46.204;5.220;2022-12-07T14:01:53;98651.16;;;4.45;78.24
48874;BME280;35220;46.204;5.220;2022-12-07T14:06:54;98646.81;;;4.38;77.89
48874;BME280;35220;46.204;5.220;2022-12-07T14:11:56;98643.66;;;4.36;77.83
48874;BME280;35220;46.204;5.220;2022-12-07T14:16:58;98646.44;;;4.35;77.74
48874;BME280;35220;46.204;5.220;2022-12-07T14:22:07;98641.66;;;4.38;77.24
48874;BME280;35220;46.204;5.220;2022-12-07T14:27:17;98638.66;;;4.42;77.17
48874;BME280;35220;46.204;5.220;2022-12-07T14:32:24;98637.34;;;4.32;76.91
48874;BME280;35220;46.204;5.220;2022-12-07T14:37:29;98636.13;;;4.35;77.33
48874;BME280;35220;46.204;5.220;2022-12-07T14:42:30;98641.66;;;4.38;77.11
48874;BME280;35220;46.204;5.220;2022-12-07T14:47:31;98635.72;;;4.38;76.71
48874;BME280;35220;46.204;5.220;2022-12-07T14:52:32;98628.97;;;4.37;76.99
48874;BME280;35220;46.204;5.220;2022-12-07T14:57:33;98635.94;;;4.30;76.99
48874;BME280;35220;46.204;5.220;2022-12-07T15:02:34;98633.72;;;4.40;76.89
48874;BME280;35220;46.204;5.220;2022-12-07T15:07:37;98635.28;;;4.48;76.88
48874;BME280;35220;46.204;5.220;2022-12-07T15:12:38;98628.69;;;4.52;76.78
48874;BME280;35220;46.204;5.220;2022-12-07T15:17:38;98633.38;;;4.62;76.68
48874;BME280;35220;46.204;5.220;2022-12-07T15:22:39;98622.66;;;4.65;76.24
48874;BME280;35220;46.204;5.220;2022-12-07T15:27:40;98628.75;;;4.70;76.49
48874;BME280;35220;46.204;5.220;2022-12-07T15:32:40;98620.28;;;4.63;76.15
48874;BME280;35220;46.204;5.220;2022-12-07T15:37:41;98613.03;;;4.47;76.18
48874;BME280;35220;46.204;5.220;2022-12-07T15:42:42;98612.88;;;4.42;76.37
48874;BME280;35220;46.204;5.220;2022-12-07T15:47:44;98607.94;;;4.33;76.53
48874;BME280;35220;46.204;5.220;2022-12-07T15:52:47;98610.81;;;4.18;76.23
48874;BME280;35220;46.204;5.220;2022-12-07T15:57:48;98612.22;;;4.14;76.51
48874;BME280;35220;46.204;5.220;2022-12-07T16:02:49;98602.13;;;4.13;76.51
48874;BME280;35220;46.204;5.220;2022-12-07T16:07:50;98593.97;;;4.16;76.71
48874;BME280;35220;46.204;5.220;2022-12-07T16:12:50;98596.84;;;4.33;76.28
48874;BME280;35220;46.204;5.220;2022-12-07T16:17:51;98594.22;;;4.40;76.09
48874;BME280;35220;46.204;5.220;2022-12-07T16:22:52;98602.78;;;4.33;76.26
48874;BME280;35220;46.204;5.220;2022-12-07T16:27:53;98607.53;;;4.36;76.33
48874;BME280;35220;46.204;5.220;2022-12-07T16:32:54;98597.41;;;4.42;76.11
48874;BME280;35220;46.204;5.220;2022-12-07T16:37:55;98595.06;;;4.33;76.28
48874;BME280;35220;46.204;5.220;2022-12-07T16:42:55;98591.88;;;4.31;76.41
48874;BME280;35220;46.204;5.220;2022-12-07T16:47:55;98596.84;;;4.33;76.57
48874;BME280;35220;46.204;5.220;2022-12-07T16:52:56;98604.00;;;4.31;76.67
48874;BME280;35220;46.204;5.220;2022-12-07T16:57:56;98589.31;;;4.31;76.49
48874;BME280;35220;46.204;5.220;2022-12-07T17:02:57;98586.31;;;4.34;76.30
48874;BME280;35220;46.204;5.220;2022-12-07T17:07:58;98591.47;;;4.34;76.08
48874;BME280;35220;46.204;5.220;2022-12-07T17:12:59;98597.03;;;4.38;76.04
48874;BME280;35220;46.204;5.220;2022-12-07T17:17:59;98594.06;;;4.34;76.40
48874;BME280;35220;46.204;5.220;2022-12-07T17:22:59;98585.72;;;4.39;75.92
48874;BME280;35220;46.204;5.220;2022-12-07T17:28:00;98578.34;;;4.43;75.86
48874;BME280;35220;46.204;5.220;2022-12-07T17:33:00;98581.53;;;4.38;76.19
48874;BME280;35220;46.204;5.220;2022-12-07T17:38:01;98592.00;;;4.50;75.93
48874;BME280;35220;46.204;5.220;2022-12-07T17:43:02;98575.66;;;4.56;75.40
48874;BME280;35220;46.204;5.220;2022-12-07T17:48:03;98564.63;;;4.42;75.43
48874;BME280;35220;46.204;5.220;2022-12-07T17:53:04;98556.31;;;4.40;75.93
48874;BME280;35220;46.204;5.220;2022-12-07T17:58:10;98555.56;;;4.33;75.56
48874;BME280;35220;46.204;5.220;2022-12-07T18:03:10;98554.03;;;4.32;75.62
48874;BME280;35220;46.204;5.220;2022-12-07T18:08:11;98542.50;;;4.28;75.28
48874;BME280;35220;46.204;5.220;2022-12-07T18:13:11;98539.94;;;4.28;75.36
48874;BME280;35220;46.204;5.220;2022-12-07T18:18:42;98541.31;;;4.30;75.47
48874;BME280;35220;46.204;5.220;2022-12-07T18:23:44;98533.91;;;4.41;75.22
48874;BME280;35220;46.204;5.220;2022-12-07T18:28:44;98528.75;;;4.41;75.39
48874;BME280;35220;46.204;5.220;2022-12-07T18:33:48;98528.16;;;4.38;75.08
48874;BME280;35220;46.204;5.220;2022-12-07T18:38:50;98533.47;;;4.44;74.94
48874;BME280;35220;46.204;5.220;2022-12-07T18:43:51;98523.81;;;4.39;74.78
48874;BME280;35220;46.204;5.220;2022-12-07T18:48:51;98533.16;;;4.33;74.87
48874;BME280;35220;46.204;5.220;2022-12-07T18:53:52;98524.25;;;4.29;74.82
48874;BME280;35220;46.204;5.220;2022-12-07T18:58:56;98522.53;;;4.23;75.02
48874;BME280;35220;46.204;5.220;2022-12-07T19:04:16;98522.00;;;4.14;75.17
48874;BME280;35220;46.204;5.220;2022-12-07T19:09:17;98523.56;;;4.15;75.06
48874;BME280;35220;46.204;5.220;2022-12-07T19:14:24;98514.25;;;4.14;75.08
48874;BME280;35220;46.204;5.220;2022-12-07T19:19:28;98514.78;;;4.23;74.59
48874;BME280;35220;46.204;5.220;2022-12-07T19:24:30;98517.75;;;4.27;75.00
48874;BME280;35220;46.204;5.220;2022-12-07T19:29:31;98503.84;;;4.28;75.16
48874;BME280;35220;46.204;5.220;2022-12-07T19:34:31;98504.94;;;4.38;74.58
48874;BME280;35220;46.204;5.220;2022-12-07T19:39:32;98498.94;;;4.45;74.69
48874;BME280;35220;46.204;5.220;2022-12-07T19:44:32;98495.97;;;4.48;74.54
48874;BME280;35220;46.204;5.220;2022-12-07T19:49:34;98502.28;;;4.52;74.77
48874;BME280;35220;46.204;5.220;2022-12-07T19:54:35;98499.28;;;4.55;74.60
48874;BME280;35220;46.204;5.220;2022-12-07T19:59:36;98500.09;;;4.49;74.83
48874;BME280;35220;46.204;5.220;2022-12-07T20:04:37;98497.09;;;4.52;74.36
48874;BME280;35220;46.204;5.220;2022-12-07T20:09:37;98503.06;;;4.52;74.58
48874;BME280;35220;46.204;5.220;2022-12-07T20:14:38;98488.34;;;4.53;74.44
48874;BME280;35220;46.204;5.220;2022-12-07T20:19:39;98490.50;;;4.56;74.34
48874;BME280;35220;46.204;5.220;2022-12-07T20:24:39;98486.94;;;4.57;74.15
48874;BME280;35220;46.204;5.220;2022-12-07T20:29:41;98486.78;;;4.52;74.43
48874;BME280;35220;46.204;5.220;2022-12-07T20:34:42;98475.31;;;4.48;74.00
48874;BME280;35220;46.204;5.220;2022-12-07T20:39:44;98481.22;;;4.55;74.51
48874;BME280;35220;46.204;5.220;2022-12-07T20:44:44;98472.81;;;4.60;74.18
48874;BME280;35220;46.204;5.220;2022-12-07T20:49:45;98474.19;;;4.62;74.46
48874;BME280;35220;46.204;5.220;2022-12-07T20:54:45;98463.31;;;4.60;74.27
48874;BME280;35220;46.204;5.220;2022-12-07T20:59:46;98456.34;;;4.61;74.38
48874;BME280;35220;46.204;5.220;2022-12-07T21:04:46;98456.56;;;4.59;74.36
48874;BME280;35220;46.204;5.220;2022-12-07T21:09:47;98454.97;;;4.58;74.29
48874;BME280;35220;46.204;5.220;2022-12-07T21:14:47;98460.34;;;4.56;74.23
48874;BME280;35220;46.204;5.220;2022-12-07T21:19:47;98469.63;;;4.39;74.62
48874;BME280;35220;46.204;5.220;2022-12-07T21:24:48;98460.00;;;4.28;74.74
48874;BME280;35220;46.204;5.220;2022-12-07T21:29:48;98454.91;;;4.21;74.66
48874;BME280;35220;46.204;5.220;2022-12-07T21:34:49;98451.69;;;4.26;74.75
48874;BME280;35220;46.204;5.220;2022-12-07T21:39:49;98452.53;;;4.19;74.84
48874;BME280;35220;46.204;5.220;2022-12-07T21:44:50;98458.28;;;4.22;74.91
48874;BME280;35220;46.204;5.220;2022-12-07T21:49:50;98447.06;;;4.09;75.20
48874;BME280;35220;46.204;5.220;2022-12-07T21:54:51;98445.09;;;4.05;75.21
48874;BME280;35220;46.204;5.220;2022-12-07T21:59:51;98446.34;;;3.95;74.81
48874;BME280;35220;46.204;5.220;2022-12-07T22:04:52;98446.19;;;3.90;74.95
48874;BME280;35220;46.204;5.220;2022-12-07T22:09:52;98439.47;;;3.89;75.16
48874;BME280;35220;46.204;5.220;2022-12-07T22:14:53;98432.16;;;3.86;75.22
48874;BME280;35220;46.204;5.220;2022-12-07T22:20:06;98434.31;;;3.89;75.18
48874;BME280;35220;46.204;5.220;2022-12-07T22:25:07;98436.16;;;3.82;75.04
48874;BME280;35220;46.204;5.220;2022-12-07T22:30:10;98438.75;;;3.75;75.01
48874;BME280;35220;46.204;5.220;2022-12-07T22:35:11;98428.66;;;3.74;75.00
48874;BME280;35220;46.204;5.220;2022-12-07T22:40:12;98428.91;;;3.66;74.63
48874;BME280;35220;46.204;5.220;2022-12-07T22:45:12;98430.91;;;3.57;74.96
48874;BME280;35220;46.204;5.220;2022-12-07T22:50:13;98429.34;;;3.56;75.29
48874;BME280;35220;46.204;5.220;2022-12-07T22:55:13;98432.75;;;3.50;75.40
48874;BME280;35220;46.204;5.220;2022-12-07T23:00:14;98435.78;;;3.40;75.13
48874;BME280;35220;46.204;5.220;2022-12-07T23:05:15;98438.97;;;3.35;75.29
48874;BME280;35220;46.204;5.220;2022-12-07T23:10:15;98438.59;;;3.25;75.35
48874;BME280;35220;46.204;5.220;2022-12-07T23:15:16;98430.28;;;3.30;75.25
48874;BME280;35220;46.204;5.220;2022-12-07T23:20:16;98432.44;;;3.33;75.43
48874;BME280;35220;46.204;5.220;2022-12-07T23:25:17;98430.50;;;3.21;75.33
48874;BME280;35220;46.204;5.220;2022-12-07T23:30:17;98428.75;;;3.15;75.04
48874;BME280;35220;46.204;5.220;2022-12-07T23:35:18;98418.09;;;3.12;75.25
48874;BME280;35220;46.204;5.220;2022-12-07T23:40:18;98420.06;;;3.16;74.83
48874;BME280;35220;46.204;5.220;2022-12-07T23:45:19;98412.72;;;3.20;74.99
48874;BME280;35220;46.204;5.220;2022-12-07T23:50:19;98404.03;;;3.08;74.87
48874;BME280;35220;46.204;5.220;2022-12-07T23:55:20;98408.44;;;2.94;75.02
